Time;durP1;ratioP1;P1;durP2;ratioP2;P2;SDS_P1;SDS_P2;PMS_P1;PMS_P2;Temp;Humidity;BMP_temperature;BMP_pressure;BME280_temperature;BME280_humidity;BME280_pressure;Samples;Min_cycle;Max_cycle;Signal;HPM_P1;HPM_P2
2023/09/05 00:00:14;;;;;;;9.45;8.65;;;;;;;;;;5004795;28;20258;-75
2023/09/05 00:02:41;;;;;;;10.15;9.30;;;;;;;;;;5001912;28;20034;-75
2023/09/05 00:05:07;;;;;;;9.27;8.68;;;;;;;;;;5005514;28;20046;-74
2023/09/05 00:07:35;;;;;;;9.82;8.93;;;;;;;;;;5004995;28;20025;-75
2023/09/05 00:10:05;;;;;;;9.80;9.10;;;;;;;;;;5005307;28;20124;-75
2023/09/05 00:12:31;;;;;;;9.93;9.23;;;;;;;;;;5006546;28;20639;-74
2023/09/05 00:14:57;;;;;;;9.77;9.07;;;;;;;;;;5002513;28;20109;-74
2023/09/05 00:17:23;;;;;;;9.90;9.20;;;;;;;;;;5006646;28;20037;-75
2023/09/05 00:19:49;;;;;;;9.52;8.93;;;;;;;;;;5006701;28;20164;-75
2023/09/05 00:22:15;;;;;;;9.63;8.93;;;;;;;;;;5004532;28;20033;-74
2023/09/05 00:24:42;;;;;;;9.90;9.20;;;;;;;;;;5001607;28;20502;-74
2023/09/05 00:27:09;;;;;;;9.82;9.10;;;;;;;;;;5005669;28;20046;-75
2023/09/05 00:29:36;;;;;;;9.88;9.20;;;;;;;;;;5021013;28;20036;-74
2023/09/05 00:32:03;;;;;;;9.77;9.02;;;;;;;;;;5003359;28;20535;-75
2023/09/05 00:34:31;;;;;;;10.30;9.60;;;;;;;;;;5004507;28;20077;-75
2023/09/05 00:37:00;;;;;;;10.52;9.65;;;;;;;;;;5004311;28;20117;-76
2023/09/05 00:39:27;;;;;;;9.40;8.80;;;;;;;;;;5004736;28;20281;-76
2023/09/05 00:41:54;;;;;;;9.10;8.50;;;;;;;;;;5005507;28;20030;-75
2023/09/05 00:44:20;;;;;;;9.48;8.77;;;;;;;;;;5020603;28;20034;-75
2023/09/05 00:46:47;;;;;;;9.30;8.70;;;;;;;;;;4996636;28;20509;-75
2023/09/05 00:49:15;;;;;;;9.80;8.90;;;;;;;;;;5001461;28;20038;-75
2023/09/05 00:51:50;;;;;;;9.90;9.23;;;;;;;;;;5003173;28;20036;-75
2023/09/05 00:54:17;;;;;;;9.52;8.60;;;;;;;;;;5005323;28;20044;-75
2023/09/05 00:56:43;;;;;;;9.20;8.40;;;;;;;;;;5002535;28;20042;-75
2023/09/05 00:59:10;;;;;;;9.27;8.57;;;;;;;;;;5004261;28;20033;-75
2023/09/05 01:01:36;;;;;;;8.98;8.32;;;;;;;;;;5020598;28;20026;-75
2023/09/05 01:04:02;;;;;;;9.30;8.68;;;;;;;;;;5002838;28;20066;-76
2023/09/05 01:06:37;;;;;;;9.38;8.68;;;;;;;;;;5019225;28;20033;-76
2023/09/05 01:09:18;;;;;;;9.30;8.63;;;;;;;;;;5004027;28;20132;-75
2023/09/05 01:11:44;;;;;;;10.77;9.00;;;;;;;;;;5002112;28;20038;-75
2023/09/05 01:14:10;;;;;;;9.98;9.25;;;;;;;;;;5003239;28;20033;-76
2023/09/05 01:16:45;;;;;;;9.82;9.13;;;;;;;;;;5001106;28;20030;-75
2023/09/05 01:19:14;;;;;;;9.75;8.95;;;;;;;;;;5003897;28;20034;-75
2023/09/05 01:21:48;;;;;;;9.30;8.60;;;;;;;;;;5005494;28;20026;-76
2023/09/05 01:24:21;;;;;;;9.77;9.07;;;;;;;;;;5002406;28;20045;-75
2023/09/05 01:26:51;;;;;;;9.45;8.80;;;;;;;;;;5020674;28;20068;-75
2023/09/05 01:29:25;;;;;;;9.98;9.18;;;;;;;;;;5001473;28;20490;-75
2023/09/05 01:31:52;;;;;;;9.73;9.02;;;;;;;;;;5002907;28;20069;-75
2023/09/05 01:34:18;;;;;;;10.32;9.52;;;;;;;;;;5004854;28;20694;-77
2023/09/05 01:36:43;;;;;;;9.57;8.60;;;;;;;;;;5005443;28;20041;-76
2023/09/05 01:39:09;;;;;;;9.27;8.68;;;;;;;;;;5004342;28;20707;-75
2023/09/05 01:41:34;;;;;;;10.63;9.60;;;;;;;;;;5008341;28;20057;-75
2023/09/05 01:44:00;;;;;;;10.38;9.60;;;;;;;;;;5014672;28;20037;-74
2023/09/05 01:46:26;;;;;;;10.40;9.60;;;;;;;;;;5022666;28;20044;-75
2023/09/05 01:48:51;;;;;;;10.15;9.35;;;;;;;;;;5023744;28;20034;-75
2023/09/05 01:51:18;;;;;;;10.50;9.45;;;;;;;;;;5023729;28;20706;-75
2023/09/05 01:53:44;;;;;;;10.23;9.35;;;;;;;;;;5023796;28;20050;-76
2023/09/05 01:56:09;;;;;;;10.55;9.60;;;;;;;;;;5022353;28;20570;-75
2023/09/05 01:58:35;;;;;;;9.73;9.02;;;;;;;;;;5003924;28;20042;-75
2023/09/05 02:01:02;;;;;;;9.80;9.02;;;;;;;;;;5007122;28;20037;-76
2023/09/05 02:03:28;;;;;;;9.68;8.98;;;;;;;;;;5021252;28;20152;-76
2023/09/05 02:05:53;;;;;;;10.05;9.15;;;;;;;;;;5004532;28;20086;-75
2023/09/05 02:08:20;;;;;;;9.80;9.10;;;;;;;;;;5008228;28;20044;-76
2023/09/05 02:10:46;;;;;;;9.70;9.02;;;;;;;;;;5023594;28;20033;-75
2023/09/05 02:13:12;;;;;;;9.27;8.68;;;;;;;;;;5005281;28;20424;-75
2023/09/05 02:15:38;;;;;;;9.88;9.18;;;;;;;;;;4990378;28;20537;-75
2023/09/05 02:18:10;;;;;;;9.85;9.15;;;;;;;;;;5008096;28;20034;-75
2023/09/05 02:20:40;;;;;;;10.05;9.05;;;;;;;;;;5003633;28;20106;-75
2023/09/05 02:23:06;;;;;;;9.88;8.85;;;;;;;;;;5019638;28;20103;-75
2023/09/05 02:25:32;;;;;;;9.43;8.77;;;;;;;;;;5022355;28;20033;-76
2023/09/05 02:27:58;;;;;;;10.52;9.63;;;;;;;;;;5006737;28;20398;-75
2023/09/05 02:30:25;;;;;;;9.65;8.95;;;;;;;;;;5007985;28;20041;-75
2023/09/05 02:32:52;;;;;;;9.70;8.98;;;;;;;;;;4992799;28;20540;-76
2023/09/05 02:35:25;;;;;;;9.37;8.67;;;;;;;;;;5004853;28;20209;-76
2023/09/05 02:37:51;;;;;;;9.48;8.75;;;;;;;;;;5003419;28;20323;-75
2023/09/05 02:40:18;;;;;;;9.40;8.70;;;;;;;;;;4990333;28;20065;-76
2023/09/05 02:42:44;;;;;;;9.68;8.98;;;;;;;;;;5004052;28;20034;-75
2023/09/05 02:45:11;;;;;;;10.13;9.23;;;;;;;;;;5005276;28;20066;-75
2023/09/05 02:47:37;;;;;;;9.68;8.98;;;;;;;;;;5022685;28;20042;-75
2023/09/05 02:50:02;;;;;;;9.70;9.10;;;;;;;;;;5006774;28;20044;-76
2023/09/05 02:52:30;;;;;;;10.20;9.45;;;;;;;;;;4987947;28;20034;-75
2023/09/05 02:54:55;;;;;;;9.88;9.13;;;;;;;;;;5005933;28;20387;-75
2023/09/05 02:57:22;;;;;;;9.88;9.18;;;;;;;;;;5004324;28;20033;-76
2023/09/05 02:59:52;;;;;;;9.68;8.98;;;;;;;;;;5012150;28;20038;-75
2023/09/05 03:02:17;;;;;;;9.48;8.88;;;;;;;;;;5004105;28;20688;-75
2023/09/05 03:04:43;;;;;;;9.90;9.20;;;;;;;;;;5022131;28;20038;-76
2023/09/05 03:07:08;;;;;;;9.85;9.18;;;;;;;;;;5005886;28;20121;-75
2023/09/05 03:09:34;;;;;;;10.10;9.40;;;;;;;;;;4989875;28;20068;-76
2023/09/05 03:12:00;;;;;;;9.85;9.05;;;;;;;;;;5020315;28;20038;-75
2023/09/05 03:14:26;;;;;;;10.07;9.13;;;;;;;;;;5006996;28;20405;-75
2023/09/05 03:16:51;;;;;;;10.18;9.27;;;;;;;;;;5005686;28;20474;-75
2023/09/05 03:19:19;;;;;;;9.85;9.15;;;;;;;;;;5022144;28;20050;-75
2023/09/05 03:21:45;;;;;;;10.27;9.48;;;;;;;;;;5004621;28;20045;-75
2023/09/05 03:24:11;;;;;;;10.30;9.40;;;;;;;;;;5005212;28;20091;-75
2023/09/05 03:26:37;;;;;;;10.23;9.23;;;;;;;;;;5005723;28;20042;-75
2023/09/05 03:29:02;;;;;;;10.10;9.20;;;;;;;;;;5006011;28;20037;-74
2023/09/05 03:31:29;;;;;;;10.23;9.45;;;;;;;;;;5004761;28;20129;-75
2023/09/05 03:33:55;;;;;;;10.25;9.45;;;;;;;;;;5005039;28;20096;-75
2023/09/05 03:36:21;;;;;;;10.32;9.52;;;;;;;;;;5006297;28;20034;-74
2023/09/05 03:38:47;;;;;;;9.90;9.20;;;;;;;;;;5004049;28;20111;-75
2023/09/05 03:41:13;;;;;;;10.43;9.60;;;;;;;;;;5006134;28;20041;-74
2023/09/05 03:43:39;;;;;;;10.48;9.57;;;;;;;;;;5001735;28;20034;-75
2023/09/05 03:46:04;;;;;;;10.95;10.10;;;;;;;;;;5019204;28;20041;-76
2023/09/05 03:48:31;;;;;;;9.85;9.18;;;;;;;;;;5020520;28;20073;-75
2023/09/05 03:58:39;;;;;;;10.55;9.75;;;;;;;;;;4977544;28;20057;-74
2023/09/05 04:01:12;;;;;;;9.60;9.00;;;;;;;;;;5005891;28;20040;-74
2023/09/05 04:03:38;;;;;;;9.90;9.18;;;;;;;;;;4998420;28;20042;-75
2023/09/05 04:06:03;;;;;;;10.45;9.65;;;;;;;;;;5010572;28;20026;-75
2023/09/05 04:08:29;;;;;;;9.95;9.20;;;;;;;;;;5019455;28;20045;-75
2023/09/05 04:10:59;;;;;;;9.90;9.20;;;;;;;;;;5001413;28;20049;-76
2023/09/05 04:13:29;;;;;;;9.45;8.65;;;;;;;;;;4996282;28;20112;-76
2023/09/05 04:15:55;;;;;;;;;;;;;;;;;;5001593;28;20034;-75
2023/09/05 04:18:20;;;;;;;10.32;9.63;;;;;;;;;;5003188;28;19920;-75
2023/09/05 04:20:46;;;;;;;9.75;9.02;;;;;;;;;;5003163;28;20544;-74
2023/09/05 04:23:12;;;;;;;10.30;9.52;;;;;;;;;;5002952;28;20077;-74
2023/09/05 04:25:40;;;;;;;10.27;9.48;;;;;;;;;;5001152;28;20038;-76
2023/09/05 04:28:07;;;;;;;10.02;9.20;;;;;;;;;;5011935;28;20041;-75
2023/09/05 04:30:34;;;;;;;10.55;9.77;;;;;;;;;;5008750;28;20035;-75
2023/09/05 04:33:03;;;;;;;10.20;9.48;;;;;;;;;;5017079;28;20169;-74
2023/09/05 04:35:29;;;;;;;10.37;9.57;;;;;;;;;;5010528;28;20041;-74
2023/09/05 04:45:24;;;;;;;10.88;9.80;;;;;;;;;;4992905;28;20061;-76
2023/09/05 04:47:49;;;;;;;10.40;9.70;;;;;;;;;;4994926;28;20050;-74
2023/09/05 04:50:15;;;;;;;9.90;9.20;;;;;;;;;;5003482;28;20378;-75
2023/09/05 04:52:41;;;;;;;10.70;9.75;;;;;;;;;;5001382;28;20034;-75
2023/09/05 04:55:06;;;;;;;10.30;9.60;;;;;;;;;;4997103;28;20672;-75
2023/09/05 04:57:32;;;;;;;10.40;9.50;;;;;;;;;;5003735;28;20117;-76
2023/09/05 04:59:58;;;;;;;10.95;9.85;;;;;;;;;;4997721;28;20493;-76
2023/09/05 05:02:24;;;;;;;10.32;9.55;;;;;;;;;;4997395;28;20052;-76
2023/09/05 05:04:50;;;;;;;10.63;9.82;;;;;;;;;;5015289;28;20038;-76
2023/09/05 05:07:16;;;;;;;11.13;10.18;;;;;;;;;;5003831;28;20044;-76
2023/09/05 05:09:42;;;;;;;11.10;10.20;;;;;;;;;;5000887;28;20041;-74
2023/09/05 05:12:08;;;;;;;10.80;9.90;;;;;;;;;;4994319;28;20137;-75
2023/09/05 05:14:33;;;;;;;9.60;8.90;;;;;;;;;;5004650;28;20197;-75
2023/09/05 05:16:59;;;;;;;10.10;9.40;;;;;;;;;;4989390;28;20038;-75
2023/09/05 05:19:24;;;;;;;11.43;9.57;;;;;;;;;;5012313;28;20061;-75
2023/09/05 05:21:51;;;;;;;10.07;9.43;;;;;;;;;;5002481;28;20468;-75
2023/09/05 05:24:17;;;;;;;10.40;9.60;;;;;;;;;;5001571;28;20042;-76
2023/09/05 05:26:43;;;;;;;10.05;9.35;;;;;;;;;;4999399;28;20100;-75
2023/09/05 05:29:09;;;;;;;10.75;9.85;;;;;;;;;;4999377;28;20058;-75
2023/09/05 05:31:34;;;;;;;9.90;9.30;;;;;;;;;;4994989;28;20073;-74
2023/09/05 05:34:00;;;;;;;10.80;10.00;;;;;;;;;;5002583;28;20041;-73
2023/09/05 05:36:26;;;;;;;10.65;9.95;;;;;;;;;;5011701;28;20460;-73
2023/09/05 05:38:52;;;;;;;10.32;9.50;;;;;;;;;;5002979;28;20103;-73
2023/09/05 05:41:18;;;;;;;10.32;9.63;;;;;;;;;;5003322;28;20033;-73
2023/09/05 05:43:44;;;;;;;10.48;9.75;;;;;;;;;;5001697;28;20064;-73
2023/09/05 05:46:12;;;;;;;10.30;9.60;;;;;;;;;;4996774;28;20033;-73
2023/09/05 05:48:38;;;;;;;10.60;9.90;;;;;;;;;;4994699;28;20177;-73
2023/09/05 05:51:04;;;;;;;11.20;10.20;;;;;;;;;;5001023;28;20037;-74
2023/09/05 05:53:30;;;;;;;10.48;9.68;;;;;;;;;;4994350;28;20041;-73
2023/09/05 05:55:55;;;;;;;10.38;9.57;;;;;;;;;;5000092;28;20033;-73
2023/09/05 05:58:21;;;;;;;10.43;9.63;;;;;;;;;;4996180;28;20530;-74
2023/09/05 06:00:50;;;;;;;10.45;9.75;;;;;;;;;;4995242;28;20037;-72
2023/09/05 06:03:20;;;;;;;10.27;9.48;;;;;;;;;;4997680;28;20508;-74
2023/09/05 06:05:48;;;;;;;10.30;9.40;;;;;;;;;;4998502;28;20038;-74
2023/09/05 06:08:14;;;;;;;10.20;9.60;;;;;;;;;;4999823;28;20115;-74
2023/09/05 06:10:39;;;;;;;9.88;9.27;;;;;;;;;;4999359;28;20448;-73
2023/09/05 06:13:06;;;;;;;10.70;9.90;;;;;;;;;;5001219;28;20045;-74
2023/09/05 06:15:32;;;;;;;10.25;9.55;;;;;;;;;;5003778;28;20072;-74
2023/09/05 06:17:58;;;;;;;10.13;9.43;;;;;;;;;;4998033;28;20108;-74
2023/09/05 06:20:24;;;;;;;10.65;9.77;;;;;;;;;;5003320;28;20470;-74
2023/09/05 06:22:49;;;;;;;10.70;9.90;;;;;;;;;;5000906;28;20064;-74
2023/09/05 06:25:16;;;;;;;10.63;9.93;;;;;;;;;;5000626;28;20041;-74
2023/09/05 06:27:43;;;;;;;10.88;10.00;;;;;;;;;;5004152;28;20068;-73
2023/09/05 06:30:13;;;;;;;9.93;9.13;;;;;;;;;;5005027;28;20049;-74
2023/09/05 06:32:39;;;;;;;9.75;9.13;;;;;;;;;;4993935;28;20052;-73
2023/09/05 06:35:05;;;;;;;10.10;9.43;;;;;;;;;;4999044;28;20058;-74
2023/09/05 06:37:33;;;;;;;10.63;9.82;;;;;;;;;;4999554;28;20420;-73
2023/09/05 06:40:12;;;;;;;10.50;9.70;;;;;;;;;;5003125;28;20233;-73
2023/09/05 06:42:39;;;;;;;;;;;;;;;;;;5020708;28;20531;-73
2023/09/05 06:45:05;;;;;;;10.45;9.65;;;;;;;;;;4997242;28;19913;-73
2023/09/05 06:47:31;;;;;;;10.35;9.65;;;;;;;;;;4995812;28;20500;-73
2023/09/05 06:49:56;;;;;;;10.75;9.98;;;;;;;;;;4999874;28;20046;-73
2023/09/05 06:52:22;;;;;;;10.52;9.82;;;;;;;;;;4991053;28;20041;-74
2023/09/05 06:54:47;;;;;;;9.85;9.15;;;;;;;;;;5001175;28;20033;-73
2023/09/05 06:57:13;;;;;;;9.80;9.00;;;;;;;;;;4996116;28;20034;-74
2023/09/05 06:59:38;;;;;;;9.73;9.02;;;;;;;;;;5000642;28;20038;-74
2023/09/05 07:02:04;;;;;;;8.90;8.30;;;;;;;;;;5001081;28;20034;-74
2023/09/05 07:04:31;;;;;;;10.15;8.65;;;;;;;;;;4998838;28;20038;-74
2023/09/05 07:07:01;;;;;;;8.73;8.13;;;;;;;;;;5005495;28;20026;-75
2023/09/05 07:09:27;;;;;;;8.73;7.95;;;;;;;;;;5008306;28;20038;-74
2023/09/05 07:11:53;;;;;;;8.93;8.20;;;;;;;;;;4996473;28;20647;-75
2023/09/05 07:14:18;;;;;;;9.35;8.55;;;;;;;;;;5003385;28;20072;-74
2023/09/05 07:16:44;;;;;;;9.50;8.60;;;;;;;;;;4999085;28;20371;-74
2023/09/05 07:19:09;;;;;;;8.93;8.23;;;;;;;;;;5001967;28;20600;-74
2023/09/05 07:21:40;;;;;;;9.10;8.50;;;;;;;;;;5006427;28;20496;-75
2023/09/05 07:24:07;;;;;;;8.68;8.07;;;;;;;;;;5006295;28;20026;-75
2023/09/05 07:26:33;;;;;;;9.70;8.75;;;;;;;;;;5002293;28;20049;-75
2023/09/05 07:28:59;;;;;;;10.32;8.65;;;;;;;;;;5002830;28;20041;-74
2023/09/05 07:31:30;;;;;;;8.93;8.15;;;;;;;;;;4997377;28;20042;-74
2023/09/05 07:33:55;;;;;;;9.00;8.40;;;;;;;;;;5000102;28;20026;-74
2023/09/05 07:36:21;;;;;;;8.40;7.90;;;;;;;;;;4997432;28;20037;-74
2023/09/05 07:38:46;;;;;;;9.05;8.40;;;;;;;;;;5002004;28;20039;-73
2023/09/05 07:41:12;;;;;;;9.45;8.65;;;;;;;;;;4996351;28;20131;-75
2023/09/05 07:43:41;;;;;;;8.63;7.90;;;;;;;;;;5001776;28;20061;-75
2023/09/05 07:46:11;;;;;;;9.02;8.23;;;;;;;;;;5022071;28;20038;-75
2023/09/05 07:48:37;;;;;;;8.30;7.70;;;;;;;;;;5004632;28;20171;-74
2023/09/05 07:51:05;;;;;;;8.38;7.78;;;;;;;;;;4995174;28;21378;-75
2023/09/05 07:53:34;;;;;;;8.18;7.63;;;;;;;;;;4999395;28;20533;-75
2023/09/05 07:56:00;;;;;;;8.60;8.00;;;;;;;;;;5004021;28;20046;-75
2023/09/05 07:58:27;;;;;;;8.27;7.40;;;;;;;;;;5000298;28;20117;-74
2023/09/05 08:00:53;;;;;;;8.02;7.25;;;;;;;;;;4997075;28;20038;-74
2023/09/05 08:03:25;;;;;;;8.40;7.80;;;;;;;;;;5001773;28;20105;-75
2023/09/05 08:05:53;;;;;;;9.75;8.25;;;;;;;;;;5000307;28;20038;-75
2023/09/05 08:08:20;;;;;;;8.30;7.70;;;;;;;;;;4996242;28;20081;-75
2023/09/05 08:10:45;;;;;;;8.43;7.70;;;;;;;;;;4996961;28;20046;-75
2023/09/05 08:13:12;;;;;;;8.65;7.82;;;;;;;;;;4998706;28;20374;-75
2023/09/05 08:15:38;;;;;;;8.20;7.60;;;;;;;;;;4996034;28;20033;-75
2023/09/05 08:18:04;;;;;;;7.97;7.38;;;;;;;;;;5002191;28;20076;-75
2023/09/05 08:20:30;;;;;;;7.55;7.00;;;;;;;;;;5000075;28;20089;-75
2023/09/05 08:22:55;;;;;;;7.35;6.85;;;;;;;;;;4995915;28;20040;-75
2023/09/05 08:25:23;;;;;;;7.70;7.20;;;;;;;;;;5003065;28;20087;-75
2023/09/05 08:27:50;;;;;;;7.78;7.20;;;;;;;;;;5001332;28;20046;-76
2023/09/05 08:30:16;;;;;;;7.60;7.10;;;;;;;;;;5012753;28;20038;-75
2023/09/05 08:32:43;;;;;;;7.78;7.25;;;;;;;;;;4999464;28;20030;-75
2023/09/05 08:35:09;;;;;;;7.90;7.30;;;;;;;;;;5013391;28;20160;-75
2023/09/05 08:37:37;;;;;;;7.80;7.20;;;;;;;;;;5002009;28;20029;-75
2023/09/05 08:40:03;;;;;;;7.65;7.15;;;;;;;;;;4992420;28;20508;-75
2023/09/05 08:42:31;;;;;;;7.60;7.10;;;;;;;;;;5011594;28;20038;-76
2023/09/05 08:44:59;;;;;;;7.97;7.28;;;;;;;;;;4993964;28;20038;-75
2023/09/05 08:47:28;;;;;;;7.50;6.85;;;;;;;;;;4999471;28;20049;-75
2023/09/05 08:49:53;;;;;;;7.85;7.10;;;;;;;;;;4999469;28;20042;-75
2023/09/05 08:52:20;;;;;;;7.80;7.00;;;;;;;;;;4998546;28;20045;-76
2023/09/05 08:54:47;;;;;;;7.40;6.80;;;;;;;;;;5003347;28;20049;-75
2023/09/05 08:57:17;;;;;;;7.30;6.70;;;;;;;;;;4996210;28;20034;-75
2023/09/05 08:59:43;;;;;;;7.32;6.82;;;;;;;;;;4999647;28;20374;-76
2023/09/05 09:02:13;;;;;;;6.72;6.32;;;;;;;;;;5019408;28;20522;-75
2023/09/05 09:04:52;;;;;;;7.10;6.60;;;;;;;;;;4995426;28;20034;-75
2023/09/05 09:07:18;;;;;;;6.70;6.30;;;;;;;;;;4996623;28;20034;-75
2023/09/05 09:09:44;;;;;;;7.35;6.75;;;;;;;;;;5000876;28;20412;-76
2023/09/05 09:12:10;;;;;;;7.90;7.00;;;;;;;;;;4999176;28;20125;-76
2023/09/05 09:14:36;;;;;;;7.40;6.90;;;;;;;;;;5011031;28;20109;-76
2023/09/05 09:17:04;;;;;;;7.82;7.13;;;;;;;;;;5003454;28;20236;-75
2023/09/05 09:19:30;;;;;;;8.07;6.85;;;;;;;;;;4992351;28;20399;-76
2023/09/05 09:22:03;;;;;;;7.82;7.10;;;;;;;;;;4994393;28;20062;-75
2023/09/05 09:24:33;;;;;;;7.57;7.07;;;;;;;;;;4995280;28;20034;-76
2023/09/05 09:27:04;;;;;;;8.07;7.40;;;;;;;;;;5001530;28;20519;-75
2023/09/05 09:29:30;;;;;;;7.75;7.25;;;;;;;;;;5001867;28;20041;-75
2023/09/05 09:32:06;;;;;;;7.00;6.50;;;;;;;;;;4998575;28;20096;-75
2023/09/05 09:34:34;;;;;;;7.53;7.03;;;;;;;;;;4995211;28;20497;-76
2023/09/05 09:37:00;;;;;;;7.68;7.18;;;;;;;;;;4994476;28;20049;-75
2023/09/05 09:39:29;;;;;;;7.40;6.80;;;;;;;;;;5001731;28;20121;-76
2023/09/05 09:41:56;;;;;;;7.30;6.70;;;;;;;;;;4993981;28;20033;-76
2023/09/05 09:44:29;;;;;;;7.47;6.80;;;;;;;;;;4996477;28;20352;-76
2023/09/05 09:46:57;;;;;;;7.85;7.18;;;;;;;;;;5014459;28;20478;-76
2023/09/05 09:49:24;;;;;;;8.20;7.53;;;;;;;;;;5000001;28;20037;-76
2023/09/05 09:51:54;;;;;;;8.02;7.32;;;;;;;;;;4997714;28;20038;-76
2023/09/05 09:54:31;;;;;;;7.60;7.00;;;;;;;;;;5001072;28;20049;-76
2023/09/05 09:57:04;;;;;;;7.57;7.07;;;;;;;;;;5002374;28;20421;-76
2023/09/05 09:59:37;;;;;;;7.70;6.95;;;;;;;;;;4997394;28;20034;-76
2023/09/05 10:02:09;;;;;;;7.88;7.15;;;;;;;;;;5003899;28;20033;-76
2023/09/05 10:04:37;;;;;;;8.05;7.45;;;;;;;;;;5002935;28;20075;-75
2023/09/05 10:07:06;;;;;;;7.88;7.28;;;;;;;;;;5005905;28;20532;-76
2023/09/05 10:09:36;;;;;;;7.55;6.95;;;;;;;;;;5000962;28;20022;-75
2023/09/05 10:12:04;;;;;;;7.38;6.82;;;;;;;;;;5021507;28;20416;-76
2023/09/05 10:14:31;;;;;;;7.30;6.80;;;;;;;;;;5006040;28;20103;-76
2023/09/05 10:17:01;;;;;;;7.10;6.60;;;;;;;;;;5004831;28;20034;-76
2023/09/05 10:19:28;;;;;;;7.38;6.88;;;;;;;;;;5002661;28;20045;-76
2023/09/05 10:21:57;;;;;;;6.87;6.43;;;;;;;;;;5006638;28;20517;-76
2023/09/05 10:24:24;;;;;;;;;;;;;;;;;;5002967;28;20088;-76
2023/09/05 10:26:50;;;;;;;6.65;6.15;;;;;;;;;;5002637;28;19914;-76
2023/09/05 10:29:39;;;;;;;6.80;6.30;;;;;;;;;;5005050;28;20034;-76
2023/09/05 10:32:04;;;;;;;6.93;6.43;;;;;;;;;;5001132;28;20088;-76
2023/09/05 10:34:45;;;;;;;7.00;6.50;;;;;;;;;;4999648;28;20045;-76
2023/09/05 10:37:12;;;;;;;7.47;6.88;;;;;;;;;;5000308;28;20260;-75
2023/09/05 10:39:47;;;;;;;7.50;6.88;;;;;;;;;;5003733;28;20480;-75
2023/09/05 10:42:13;;;;;;;7.45;6.95;;;;;;;;;;5003717;28;20810;-75
2023/09/05 10:44:45;;;;;;;7.65;7.00;;;;;;;;;;5003122;28;20042;-75
2023/09/05 10:47:27;;;;;;;7.32;6.78;;;;;;;;;;5006298;28;20065;-76
2023/09/05 10:50:15;;;;;;;7.22;6.72;;;;;;;;;;5002734;28;20034;-76
2023/09/05 10:52:41;;;;;;;7.23;6.73;;;;;;;;;;5007888;28;20769;-75
2023/09/05 10:55:29;;;;;;;7.10;6.50;;;;;;;;;;5002873;28;20049;-76
2023/09/05 10:57:55;;;;;;;6.43;5.97;;;;;;;;;;4999106;28;20107;-76
2023/09/05 11:00:22;;;;;;;7.25;6.70;;;;;;;;;;5002122;28;20435;-76
2023/09/05 11:02:48;;;;;;;7.53;7.10;;;;;;;;;;5004287;28;20038;-76
2023/09/05 11:05:25;;;;;;;7.85;7.25;;;;;;;;;;5004551;28;20163;-76
2023/09/05 11:08:01;;;;;;;8.50;7.55;;;;;;;;;;5001722;28;20042;-76
2023/09/05 11:10:28;;;;;;;7.20;6.80;;;;;;;;;;5007275;28;20041;-76
2023/09/05 11:12:55;;;;;;;7.40;6.90;;;;;;;;;;5000896;28;20542;-75
2023/09/05 11:15:43;;;;;;;8.50;7.68;;;;;;;;;;5007807;28;20281;-76
2023/09/05 11:18:12;;;;;;;8.20;7.60;;;;;;;;;;5005531;28;20038;-76
2023/09/05 11:20:51;;;;;;;7.85;7.25;;;;;;;;;;5004024;28;20057;-76
2023/09/05 11:23:34;;;;;;;7.78;7.28;;;;;;;;;;5002462;28;20061;-76
2023/09/05 11:26:22;;;;;;;7.95;7.25;;;;;;;;;;5017361;28;20410;-76
2023/09/05 11:32:15;;;;;;;7.97;7.40;;;;;;;;;;4963953;28;20091;-75
2023/09/05 11:35:10;;;;;;;7.90;7.30;;;;;;;;;;4946479;28;20055;-76
2023/09/05 11:37:58;;;;;;;7.95;7.45;;;;;;;;;;4959652;28;20756;-76
2023/09/05 11:40:57;;;;;;;7.75;7.25;;;;;;;;;;4962263;28;20583;-76
2023/09/05 11:44:14;;;;;;;8.00;7.50;;;;;;;;;;4943006;28;20047;-76
2023/09/05 11:47:22;;;;;;;8.13;7.63;;;;;;;;;;4938296;28;20586;-76
2023/09/05 11:49:50;;;;;;;8.13;7.53;;;;;;;;;;4961911;28;20649;-76
2023/09/05 11:52:18;;;;;;;8.27;7.68;;;;;;;;;;4959104;28;20921;-76
2023/09/05 11:54:47;;;;;;;8.70;7.90;;;;;;;;;;4957294;28;20035;-76
2023/09/05 11:57:14;;;;;;;9.07;8.30;;;;;;;;;;4962378;28;20050;-76
2023/09/05 11:59:40;;;;;;;8.70;8.10;;;;;;;;;;4945715;28;20047;-77
2023/09/05 12:02:08;;;;;;;11.20;7.95;;;;;;;;;;4949201;28;20053;-77
2023/09/05 12:04:35;;;;;;;8.45;7.95;;;;;;;;;;4960880;28;20042;-76
2023/09/05 12:07:03;;;;;;;8.60;7.90;;;;;;;;;;4963173;28;20110;-76
2023/09/05 12:09:29;;;;;;;8.85;8.35;;;;;;;;;;4958754;28;20416;-76
2023/09/05 12:12:14;;;;;;;8.43;7.72;;;;;;;;;;4961632;28;20049;-77
2023/09/05 12:14:54;;;;;;;8.88;8.18;;;;;;;;;;4977609;28;20133;-76
2023/09/05 12:17:22;;;;;;;9.25;8.60;;;;;;;;;;4998295;28;20045;-76
2023/09/05 12:19:49;;;;;;;8.93;8.32;;;;;;;;;;5003578;28;20041;-76
2023/09/05 12:22:26;;;;;;;9.00;8.35;;;;;;;;;;5000689;28;20084;-76
2023/09/05 12:25:15;;;;;;;8.83;8.23;;;;;;;;;;4995904;28;20083;-75
2023/09/05 12:27:45;;;;;;;8.95;8.35;;;;;;;;;;5004492;28;20328;-76
2023/09/05 12:30:27;;;;;;;9.02;8.43;;;;;;;;;;5003634;28;20413;-76
2023/09/05 12:32:55;;;;;;;8.80;8.20;;;;;;;;;;5002835;28;20037;-76
2023/09/05 12:35:21;;;;;;;8.73;8.18;;;;;;;;;;5003405;28;20505;-76
2023/09/05 12:37:47;;;;;;;8.70;8.10;;;;;;;;;;5001723;28;20116;-76
2023/09/05 12:40:16;;;;;;;8.80;8.20;;;;;;;;;;4998316;28;20046;-76
2023/09/05 12:42:45;;;;;;;8.98;8.30;;;;;;;;;;5002361;28;20449;-76
2023/09/05 12:45:13;;;;;;;8.50;8.00;;;;;;;;;;5007472;28;20120;-76
2023/09/05 12:47:39;;;;;;;9.40;8.60;;;;;;;;;;5000897;28;20515;-76
2023/09/05 12:50:12;;;;;;;9.00;8.40;;;;;;;;;;4997674;28;20871;-76
2023/09/05 12:52:43;;;;;;;8.85;8.30;;;;;;;;;;5001335;28;20041;-76
2023/09/05 12:55:13;;;;;;;9.27;8.43;;;;;;;;;;5003227;28;20596;-76
2023/09/05 12:57:40;;;;;;;8.98;8.30;;;;;;;;;;4999778;28;20790;-76
2023/09/05 13:00:07;;;;;;;9.00;8.40;;;;;;;;;;4999127;28;20053;-76
2023/09/05 13:02:34;;;;;;;8.73;8.13;;;;;;;;;;4999876;28;20034;-76
2023/09/05 13:05:00;;;;;;;9.02;8.43;;;;;;;;;;5010660;28;20477;-76
2023/09/05 13:07:25;;;;;;;9.63;8.88;;;;;;;;;;5003067;28;20040;-76
2023/09/05 13:09:53;;;;;;;9.93;8.90;;;;;;;;;;4999958;28;20054;-76
2023/09/05 13:12:18;;;;;;;9.13;8.52;;;;;;;;;;5000137;28;20030;-76
2023/09/05 13:14:45;;;;;;;9.60;8.98;;;;;;;;;;5003158;28;20037;-76
2023/09/05 13:17:15;;;;;;;9.52;8.70;;;;;;;;;;5004196;28;20121;-76
2023/09/05 13:19:41;;;;;;;9.50;8.70;;;;;;;;;;5003071;28;20045;-76
2023/09/05 13:22:07;;;;;;;8.90;8.40;;;;;;;;;;5001784;28;20045;-76
2023/09/05 13:24:32;;;;;;;8.93;8.35;;;;;;;;;;5004408;28;20050;-76
2023/09/05 13:26:59;;;;;;;9.43;8.85;;;;;;;;;;5006433;28;20112;-76
2023/09/05 13:29:25;;;;;;;9.23;8.52;;;;;;;;;;4998951;28;20470;-76
2023/09/05 13:31:51;;;;;;;9.55;8.95;;;;;;;;;;5021403;28;20045;-76
2023/09/05 13:34:17;;;;;;;9.40;8.80;;;;;;;;;;4997753;28;20099;-76
2023/09/05 13:36:43;;;;;;;9.05;8.43;;;;;;;;;;5006287;28;20038;-75
2023/09/05 13:39:09;;;;;;;9.40;8.90;;;;;;;;;;5003251;28;20121;-75
2023/09/05 13:41:36;;;;;;;9.55;9.00;;;;;;;;;;5005492;28;20489;-75
2023/09/05 13:44:02;;;;;;;9.60;9.00;;;;;;;;;;5003191;28;20037;-75
2023/09/05 13:46:27;;;;;;;9.40;8.80;;;;;;;;;;5003244;28;20636;-76
2023/09/05 13:48:53;;;;;;;9.10;8.60;;;;;;;;;;5005127;28;20488;-75
2023/09/05 13:51:22;;;;;;;9.50;8.90;;;;;;;;;;5001368;28;20038;-75
2023/09/05 13:53:48;;;;;;;;;;;;;;;;;;5015838;28;20046;-75
2023/09/05 13:56:14;;;;;;;9.85;8.98;;;;;;;;;;5000243;28;19917;-75
2023/09/05 13:58:40;;;;;;;9.55;8.95;;;;;;;;;;5006918;28;20036;-76
2023/09/05 14:01:05;;;;;;;9.68;9.00;;;;;;;;;;5003483;28;20043;-75
2023/09/05 14:03:32;;;;;;;9.38;8.77;;;;;;;;;;5004248;28;20044;-75
2023/09/05 14:05:57;;;;;;;9.65;9.00;;;;;;;;;;5000211;28;20042;-75
2023/09/05 14:08:24;;;;;;;9.05;8.55;;;;;;;;;;5002760;28;20042;-76
2023/09/05 14:10:54;;;;;;;8.98;8.43;;;;;;;;;;5004638;28;20453;-75
2023/09/05 14:13:20;;;;;;;9.27;8.70;;;;;;;;;;5002799;28;20606;-76
2023/09/05 14:15:47;;;;;;;9.02;8.43;;;;;;;;;;5000970;28;20085;-76
2023/09/05 14:18:13;;;;;;;9.30;8.68;;;;;;;;;;5004537;28;20041;-76
2023/09/05 14:20:40;;;;;;;8.73;8.20;;;;;;;;;;5004718;28;20034;-75
2023/09/05 14:23:06;;;;;;;8.88;8.38;;;;;;;;;;5001213;28;20489;-74
2023/09/05 14:25:33;;;;;;;9.07;8.57;;;;;;;;;;5004905;28;20062;-77
2023/09/05 14:27:59;;;;;;;9.32;8.63;;;;;;;;;;5002512;28;20044;-75
2023/09/05 14:30:24;;;;;;;9.18;8.68;;;;;;;;;;5004812;28;20391;-75
2023/09/05 14:32:50;;;;;;;9.65;8.80;;;;;;;;;;5007772;28;20245;-74
2023/09/05 14:35:16;;;;;;;9.50;8.70;;;;;;;;;;5005793;28;20034;-74
2023/09/05 14:37:41;;;;;;;9.13;8.48;;;;;;;;;;5004790;28;20091;-74
2023/09/05 14:40:08;;;;;;;9.00;8.50;;;;;;;;;;5005940;28;20470;-74
2023/09/05 14:42:34;;;;;;;9.00;8.38;;;;;;;;;;5004177;28;20030;-74
2023/09/05 14:44:59;;;;;;;9.00;8.50;;;;;;;;;;5002430;28;20088;-75
2023/09/05 14:47:25;;;;;;;8.93;8.32;;;;;;;;;;5004716;28;20041;-75
2023/09/05 14:49:51;;;;;;;9.10;8.40;;;;;;;;;;5006658;28;20064;-74
2023/09/05 14:52:20;;;;;;;9.30;8.80;;;;;;;;;;5004431;28;20387;-75
2023/09/05 14:54:49;;;;;;;9.27;8.68;;;;;;;;;;5004440;28;20045;-75
2023/09/05 14:57:18;;;;;;;9.32;8.77;;;;;;;;;;5006026;28;20030;-74
2023/09/05 14:59:43;;;;;;;9.23;8.60;;;;;;;;;;5003875;28;20510;-75
2023/09/05 15:02:09;;;;;;;9.95;9.15;;;;;;;;;;5003518;28;20034;-75
2023/09/05 15:04:35;;;;;;;9.65;8.98;;;;;;;;;;5005917;28;20030;-75